Time;durP1;ratioP1;P1;durP2;ratioP2;P2;SDS_P1;SDS_P2;PMS_P1;PMS_P2;Temp;Humidity;BMP_temperature;BMP_pressure;BME280_temperature;BME280_humidity;BME280_pressure;Samples;Min_cycle;Max_cycle;Signal;HPM_P1;HPM_P2
2022/07/04 00:01:13;;;;;;;4.53;3.78;;;13.10;99.90;;;;;;5019160;28;20060;-43
2022/07/04 00:03:38;;;;;;;4.85;3.28;;;13.00;99.90;;;;;;4998940;28;20426;-44
2022/07/04 00:06:04;;;;;;;4.43;3.65;;;13.00;99.90;;;;;;5018748;28;20457;-42
2022/07/04 00:08:30;;;;;;;6.65;3.30;;;13.00;99.90;;;;;;5009097;28;20107;-43
2022/07/04 00:10:55;;;;;;;4.35;3.90;;;12.90;99.90;;;;;;5019478;28;20044;-43
2022/07/04 00:13:21;;;;;;;5.13;4.25;;;12.90;99.90;;;;;;5009165;28;20141;-43
2022/07/04 00:15:47;;;;;;;8.00;4.75;;;12.90;99.90;;;;;;5017221;28;20135;-44
2022/07/04 00:18:13;;;;;;;4.70;4.30;;;12.90;99.90;;;;;;5043269;28;20174;-43
2022/07/04 00:20:38;;;;;;;7.13;4.85;;;12.90;99.90;;;;;;5042810;28;20146;-44
2022/07/04 00:23:09;;;;;;;7.40;4.70;;;12.90;99.90;;;;;;5041782;28;20076;-44
2022/07/04 00:25:35;;;;;;;6.97;5.43;;;12.90;99.90;;;;;;5042798;28;20045;-43
2022/07/04 00:28:01;;;;;;;6.53;5.57;;;13.00;99.90;;;;;;5041692;28;20553;-42
2022/07/04 00:30:26;;;;;;;7.47;5.57;;;13.00;99.90;;;;;;5042598;28;20146;-42
2022/07/04 00:32:53;;;;;;;6.25;5.22;;;13.00;99.90;;;;;;5027888;28;20056;-42
2022/07/04 00:35:19;;;;;;;6.75;5.13;;;13.00;99.90;;;;;;5040731;28;20051;-43
2022/07/04 00:37:44;;;;;;;7.22;6.07;;;13.00;99.90;;;;;;5042479;28;20044;-46
2022/07/04 00:40:10;;;;;;;6.72;5.25;;;13.00;99.90;;;;;;5040114;28;20061;-44
2022/07/04 00:42:36;;;;;;;5.45;4.95;;;13.00;99.90;;;;;;5041232;28;20489;-43
2022/07/04 00:45:02;;;;;;;7.07;5.00;;;12.90;99.90;;;;;;5035669;28;20049;-43
2022/07/04 00:47:28;;;;;;;6.13;4.75;;;12.90;99.90;;;;;;5042734;28;20103;-43
2022/07/04 00:49:54;;;;;;;5.63;5.00;;;12.90;99.90;;;;;;5042879;28;20045;-42
2022/07/04 00:52:20;;;;;;;5.38;4.57;;;12.90;99.90;;;;;;5026944;28;20053;-43
2022/07/04 00:54:46;;;;;;;5.97;4.45;;;12.80;99.90;;;;;;5042147;28;20044;-43
2022/07/04 00:57:12;;;;;;;5.90;4.78;;;12.80;99.90;;;;;;5046528;28;20101;-42
2022/07/04 00:59:38;;;;;;;5.38;4.80;;;12.80;99.90;;;;;;5043940;28;20048;-44
2022/07/04 01:02:04;;;;;;;4.82;4.43;;;12.70;99.90;;;;;;5042534;28;20165;-42
2022/07/04 01:04:30;;;;;;;5.70;4.65;;;12.70;99.90;;;;;;5040141;28;20056;-45
2022/07/04 01:06:55;;;;;;;5.15;4.65;;;12.70;99.90;;;;;;5042107;28;20049;-43
2022/07/04 01:09:21;;;;;;;8.10;4.90;;;12.70;99.90;;;;;;5024067;28;20053;-42
2022/07/04 01:11:50;;;;;;;5.40;4.90;;;12.70;99.90;;;;;;5040549;28;20052;-43
2022/07/04 01:14:16;;;;;;;6.88;5.00;;;12.70;99.90;;;;;;5036778;28;20089;-43
2022/07/04 01:16:45;;;;;;;8.25;6.40;;;12.70;99.90;;;;;;5021601;28;20569;-43
2022/07/04 01:19:11;;;;;;;8.38;6.63;;;12.70;99.90;;;;;;5021322;28;20057;-44
2022/07/04 01:21:37;;;;;;;6.75;6.07;;;12.70;99.90;;;;;;5022969;28;20062;-42
2022/07/04 01:24:03;;;;;;;7.80;6.53;;;12.70;99.90;;;;;;5020817;28;20045;-43
2022/07/04 01:26:30;;;;;;;7.43;6.72;;;12.80;99.90;;;;;;5009605;28;20060;-43
2022/07/04 01:28:55;;;;;;;7.75;6.68;;;12.80;99.90;;;;;;5001401;28;20061;-43
2022/07/04 01:31:21;;;;;;;8.88;6.82;;;12.80;99.90;;;;;;5021116;28;20053;-42
2022/07/04 01:33:47;;;;;;;10.60;6.10;;;12.80;99.90;;;;;;5021123;28;20471;-43
2022/07/04 01:36:13;;;;;;;7.70;5.85;;;12.80;99.90;;;;;;5021505;28;20056;-42
2022/07/04 01:38:39;;;;;;;8.95;6.28;;;12.70;99.90;;;;;;5003660;28;20046;-43
2022/07/04 01:41:04;;;;;;;7.93;6.50;;;12.70;99.90;;;;;;5020547;28;20049;-42
2022/07/04 01:43:30;;;;;;;10.80;7.40;;;12.70;99.90;;;;;;5020660;28;20051;-42
2022/07/04 01:45:56;;;;;;;8.43;7.53;;;12.70;99.90;;;;;;5003527;28;20091;-43
2022/07/04 01:48:22;;;;;;;8.38;7.43;;;12.70;99.90;;;;;;5020525;28;20071;-42
2022/07/04 01:50:47;;;;;;;9.95;7.40;;;12.70;99.90;;;;;;5018875;28;20050;-43
2022/07/04 01:53:13;;;;;;;8.60;7.68;;;12.70;99.90;;;;;;5021099;28;20455;-43
2022/07/04 01:55:39;;;;;;;11.60;7.93;;;12.60;99.90;;;;;;5011562;28;20088;-43
2022/07/04 01:58:05;;;;;;;10.85;8.48;;;12.60;99.90;;;;;;5018765;28;20480;-43
2022/07/04 02:03:14;;;;;;;9.95;8.45;;;12.60;99.90;;;;;;5021055;28;20076;-42
2022/07/04 02:05:42;;;;;;;10.18;9.15;;;12.50;99.90;;;;;;4999900;28;20870;-42
2022/07/04 02:08:10;;;;;;;9.48;8.18;;;12.50;99.90;;;;;;4999647;28;20062;-45
2022/07/04 02:10:36;;;;;;;9.68;8.73;;;12.40;99.90;;;;;;5000926;28;20061;-44
2022/07/04 02:13:02;;;;;;;9.98;8.73;;;12.40;99.90;;;;;;5024947;28;20080;-44
2022/07/04 02:15:41;;;;;;;10.05;8.93;;;12.40;99.90;;;;;;5003724;28;20061;-47
2022/07/04 02:18:09;;;;;;;9.57;8.63;;;12.40;99.90;;;;;;5020381;28;20077;-45
2022/07/04 02:20:36;;;;;;;10.25;8.90;;;12.40;99.90;;;;;;5000519;28;20505;-43
2022/07/04 02:23:02;;;;;;;10.75;9.65;;;12.40;99.90;;;;;;5014544;28;20046;-43
2022/07/04 02:25:28;;;;;;;11.07;9.07;;;12.30;99.90;;;;;;5018622;28;20045;-43
2022/07/04 02:27:55;;;;;;;10.07;8.55;;;12.30;99.90;;;;;;5012111;28;20060;-42
2022/07/04 02:30:21;;;;;;;12.07;9.00;;;12.30;99.90;;;;;;5019597;28;20487;-42
2022/07/04 02:32:46;;;;;;;9.40;8.60;;;12.30;99.90;;;;;;5021180;28;20396;-42
2022/07/04 02:35:12;;;;;;;9.18;8.23;;;12.30;99.90;;;;;;5018144;28;20060;-44
2022/07/04 02:37:39;;;;;;;9.88;8.98;;;12.20;99.90;;;;;;5020174;28;20037;-44
2022/07/04 02:40:06;;;;;;;9.60;8.68;;;12.20;99.90;;;;;;5000419;28;20053;-42
2022/07/04 02:42:33;;;;;;;11.27;9.02;;;12.20;99.90;;;;;;4997231;28;20372;-44
2022/07/04 02:44:58;;;;;;;10.02;8.95;;;12.20;99.90;;;;;;5021306;28;20049;-44
2022/07/04 02:47:24;;;;;;;10.73;9.13;;;12.20;99.90;;;;;;5019655;28;20071;-43
2022/07/04 02:49:50;;;;;;;8.82;8.02;;;12.20;99.90;;;;;;5018284;28;20578;-42
2022/07/04 02:52:16;;;;;;;9.25;8.35;;;12.20;99.90;;;;;;5022983;28;20050;-44
2022/07/04 02:54:42;;;;;;;9.88;8.85;;;12.20;99.90;;;;;;5014081;28;20050;-43
2022/07/04 02:57:08;;;;;;;10.05;9.07;;;12.20;99.90;;;;;;5019378;28;20045;-43
2022/07/04 02:59:34;;;;;;;9.93;8.95;;;12.20;99.90;;;;;;5004577;28;20049;-43
2022/07/04 03:02:00;;;;;;;11.23;9.05;;;12.20;99.90;;;;;;5019509;28;20540;-43
2022/07/04 03:04:25;;;;;;;10.32;8.55;;;12.20;99.90;;;;;;5009516;28;20050;-44
2022/07/04 03:06:51;;;;;;;9.07;8.27;;;12.20;99.90;;;;;;5011043;28;20046;-43
2022/07/04 03:09:17;;;;;;;8.85;7.85;;;12.20;99.90;;;;;;5013147;28;20132;-41
2022/07/04 03:11:44;;;;;;;8.95;8.05;;;12.10;99.90;;;;;;5007373;28;20057;-42
2022/07/04 03:14:10;;;;;;;8.77;7.75;;;12.10;99.90;;;;;;5014574;28;20045;-45
2022/07/04 03:16:36;;;;;;;9.20;8.30;;;12.10;99.90;;;;;;5019988;28;20129;-43
2022/07/04 03:19:01;;;;;;;9.57;8.27;;;12.10;99.90;;;;;;5020904;28;20125;-42
2022/07/04 03:21:27;;;;;;;9.85;8.32;;;12.10;99.90;;;;;;5021315;28;20041;-42
2022/07/04 03:23:59;;;;;;;9.70;8.30;;;12.10;99.90;;;;;;4998740;28;20087;-45
2022/07/04 03:26:32;;;;;;;9.80;8.10;;;12.10;99.90;;;;;;5006270;28;20049;-42
2022/07/04 03:29:01;;;;;;;10.68;8.30;;;12.10;99.90;;;;;;5020610;28;20069;-45
2022/07/04 03:31:28;;;;;;;9.82;8.57;;;12.00;99.90;;;;;;5020303;28;20049;-43
2022/07/04 03:33:55;;;;;;;9.68;8.23;;;12.10;99.90;;;;;;5018619;28;20160;-44
2022/07/04 03:36:22;;;;;;;9.10;8.20;;;12.10;99.90;;;;;;5019813;28;20052;-42
2022/07/04 03:38:48;;;;;;;10.98;8.23;;;12.10;99.90;;;;;;5018847;28;20049;-44
2022/07/04 03:41:14;;;;;;;9.90;8.90;;;12.20;99.90;;;;;;5018749;28;20396;-42
2022/07/04 03:43:40;;;;;;;11.75;8.57;;;12.30;99.90;;;;;;4979456;28;20070;-42
2022/07/04 03:46:06;;;;;;;10.30;8.43;;;12.40;99.90;;;;;;4981904;28;20061;-42
2022/07/04 03:48:31;;;;;;;10.68;8.50;;;12.50;99.90;;;;;;4983158;28;20513;-43
2022/07/04 03:50:57;;;;;;;11.77;8.77;;;12.50;99.90;;;;;;4981010;28;20576;-42
2022/07/04 03:53:23;;;;;;;9.27;8.15;;;12.50;99.90;;;;;;4969488;28;20046;-42
2022/07/04 03:55:52;;;;;;;12.73;8.65;;;12.50;99.90;;;;;;4982320;28;20049;-42
2022/07/04 03:58:17;;;;;;;9.18;8.30;;;12.60;99.90;;;;;;4981666;28;20046;-42
2022/07/04 04:00:43;;;;;;;11.13;9.40;;;12.70;99.90;;;;;;4971451;28;20509;-43
2022/07/04 04:05:26;;;;;;;8.55;7.72;;;13.10;99.90;;;;;;4975431;28;20062;-43
2022/07/04 04:05:58;;;;;;;7.90;7.10;;;13.90;99.90;;;;;;4977254;28;20054;-44
2022/07/04 04:08:24;;;;;;;7.97;6.82;;;14.90;99.90;;;;;;4983987;28;20523;-44
2022/07/04 04:10:51;;;;;;;8.43;7.15;;;15.80;99.90;;;;;;4984652;28;20046;-43
2022/07/04 04:13:17;;;;;;;11.40;7.57;;;16.60;99.90;;;;;;4961340;28;20058;-42
2022/07/04 04:15:42;;;;;;;8.18;6.47;;;17.30;99.90;;;;;;4984641;28;20046;-43
2022/07/04 04:18:08;;;;;;;9.82;6.45;;;18.00;99.90;;;;;;4982118;28;20054;-43
2022/07/04 04:20:34;;;;;;;9.73;6.55;;;18.60;99.90;;;;;;4980963;28;20498;-43
2022/07/04 04:23:00;;;;;;;7.93;6.30;;;19.10;99.90;;;;;;4983212;28;20409;-43
2022/07/04 04:25:25;;;;;;;7.28;5.82;;;19.50;99.90;;;;;;4979568;28;20093;-43
2022/07/04 04:27:51;;;;;;;7.28;6.63;;;19.80;99.90;;;;;;4981398;28;20774;-47
2022/07/04 04:30:17;;;;;;;8.00;6.85;;;20.20;99.90;;;;;;4978545;28;20105;-45
2022/07/04 04:32:43;;;;;;;8.68;6.53;;;20.70;99.90;;;;;;4980487;28;20548;-45
2022/07/04 04:35:09;;;;;;;6.65;5.63;;;20.80;99.90;;;;;;4980817;28;20425;-43
2022/07/04 04:37:34;;;;;;;7.75;6.07;;;20.70;99.90;;;;;;4983068;28;20049;-44
2022/07/04 04:40:00;;;;;;;7.95;6.57;;;20.80;99.90;;;;;;4984447;28;20182;-43
2022/07/04 04:42:26;;;;;;;8.18;6.93;;;20.60;99.90;;;;;;4975591;28;20089;-43
2022/07/04 04:44:52;;;;;;;10.15;6.55;;;20.80;99.90;;;;;;4999189;28;20081;-44
2022/07/04 04:47:18;;;;;;;7.28;6.03;;;21.00;99.90;;;;;;4999667;28;20045;-44
2022/07/04 04:49:43;;;;;;;10.10;6.05;;;20.80;99.90;;;;;;4981219;28;20496;-45
2022/07/04 04:52:09;;;;;;;7.95;6.20;;;20.50;99.90;;;;;;4998760;28;20049;-43
2022/07/04 04:54:35;;;;;;;8.52;6.47;;;20.70;99.90;;;;;;4976091;28;20374;-43
2022/07/04 04:57:01;;;;;;;6.90;6.07;;;21.40;99.90;;;;;;4975480;28;20093;-44
2022/07/04 04:59:29;;;;;;;9.93;6.30;;;22.00;99.90;;;;;;4979063;28;20059;-43
2022/07/04 05:01:55;;;;;;;13.02;6.88;;;22.60;99.90;;;;;;4995264;28;20049;-43
2022/07/04 05:04:21;;;;;;;8.32;6.20;;;22.90;99.90;;;;;;4994816;28;20052;-44
2022/07/04 05:06:48;;;;;;;8.40;5.85;;;23.40;99.90;;;;;;4998624;28;20049;-44
2022/07/04 05:09:14;;;;;;;7.70;6.07;;;24.10;99.90;;;;;;4966057;28;20050;-44
2022/07/04 05:11:40;;;;;;;6.88;5.75;;;24.60;99.90;;;;;;5002481;28;20060;-43
2022/07/04 05:14:05;;;;;;;6.80;5.57;;;25.00;99.90;;;;;;4998268;28;20097;-43
2022/07/04 05:16:31;;;;;;;9.32;5.70;;;25.40;99.90;;;;;;4995429;28;20156;-44
2022/07/04 05:19:00;;;;;;;6.75;5.20;;;25.60;99.90;;;;;;4977542;28;20193;-43
2022/07/04 05:21:28;;;;;;;8.45;5.80;;;25.90;99.50;;;;;;5002151;28;20165;-45
2022/07/04 05:23:54;;;;;;;9.93;5.97;;;26.20;99.10;;;;;;5001219;28;20485;-44
2022/07/04 05:26:20;;;;;;;9.07;5.50;;;26.40;98.70;;;;;;5002202;28;20147;-44
2022/07/04 05:28:46;;;;;;;9.80;5.57;;;26.70;98.50;;;;;;4991711;28;20137;-43
2022/07/04 05:31:11;;;;;;;7.40;5.60;;;26.80;97.70;;;;;;4968190;28;20057;-44
2022/07/04 05:33:37;;;;;;;7.72;5.72;;;27.10;97.60;;;;;;5002506;28;20048;-45
2022/07/04 05:36:03;;;;;;;7.97;5.25;;;27.30;97.30;;;;;;4983267;28;20050;-44
2022/07/04 05:38:29;;;;;;;8.82;5.00;;;27.50;96.90;;;;;;4994671;28;20453;-45
2022/07/04 05:40:55;;;;;;;7.00;5.60;;;27.80;96.50;;;;;;5005911;28;20046;-44
2022/07/04 05:43:21;;;;;;;7.68;5.00;;;28.00;96.00;;;;;;4981867;28;20055;-45
2022/07/04 05:45:48;;;;;;;6.68;4.70;;;28.40;96.00;;;;;;4984171;28;20469;-44
2022/07/04 05:48:14;;;;;;;8.25;4.68;;;28.60;95.70;;;;;;4997408;28;20062;-46
2022/07/04 05:50:40;;;;;;;8.60;5.13;;;29.10;95.40;;;;;;5000065;28;20046;-46
2022/07/04 05:53:06;;;;;;;6.03;4.57;;;28.80;95.20;;;;;;4985695;28;20527;-46
2022/07/04 05:55:31;;;;;;;8.68;4.80;;;28.10;95.50;;;;;;4982549;28;20042;-45
2022/07/04 05:57:57;;;;;;;5.70;4.65;;;28.00;95.90;;;;;;4998271;28;20061;-43
2022/07/04 06:00:23;;;;;;;9.23;4.75;;;28.00;96.00;;;;;;5001208;28;20655;-44
2022/07/04 06:02:49;;;;;;;7.80;4.88;;;28.00;95.80;;;;;;5002125;28;20058;-45
2022/07/04 06:05:15;;;;;;;7.38;4.80;;;28.40;95.40;;;;;;5002342;28;20053;-44
2022/07/04 06:07:40;;;;;;;9.93;5.32;;;28.90;95.70;;;;;;5000377;28;20099;-44
2022/07/04 06:10:07;;;;;;;9.80;4.70;;;29.30;95.20;;;;;;5001355;28;20054;-46
2022/07/04 06:12:32;;;;;;;7.72;4.63;;;29.60;94.80;;;;;;5004289;28;20046;-45
2022/07/04 06:14:58;;;;;;;8.25;4.93;;;29.10;95.10;;;;;;5006630;28;20108;-45
2022/07/04 06:17:24;;;;;;;9.02;4.82;;;29.00;95.00;;;;;;5002309;28;20169;-46
2022/07/04 06:19:50;;;;;;;9.80;4.97;;;29.50;94.90;;;;;;4993211;28;20093;-48
2022/07/04 06:22:16;;;;;;;9.00;4.57;;;29.80;94.60;;;;;;5002118;28;20097;-46
2022/07/04 06:24:44;;;;;;;7.15;4.88;;;30.40;94.60;;;;;;5001554;28;20493;-44
2022/07/04 06:27:13;;;;;;;10.18;5.18;;;30.50;93.70;;;;;;5001720;28;20081;-45
2022/07/04 06:29:40;;;;;;;9.25;5.00;;;30.90;93.20;;;;;;5000248;28;20508;-45
2022/07/04 06:32:06;;;;;;;8.82;5.30;;;30.80;92.80;;;;;;5002020;28;20286;-46
2022/07/04 06:37:17;;;;;;;11.13;5.47;;;30.90;92.90;;;;;;5001026;28;20130;-46
2022/07/04 06:39:43;;;;;;;7.05;4.57;;;31.20;93.10;;;;;;4995564;28;20049;-45
2022/07/04 06:42:08;;;;;;;8.75;5.00;;;31.20;92.20;;;;;;5002325;28;20046;-45
2022/07/04 06:44:34;;;;;;;8.95;4.75;;;31.40;92.70;;;;;;5009173;28;20056;-44
2022/07/04 06:47:00;;;;;;;8.77;4.30;;;31.70;92.70;;;;;;5000888;28;20053;-45
2022/07/04 06:49:26;;;;;;;7.85;4.28;;;31.80;92.40;;;;;;5001446;28;20042;-44
2022/07/04 06:51:54;;;;;;;7.38;3.85;;;32.00;91.60;;;;;;4993445;28;20472;-46
2022/07/04 06:54:20;;;;;;;6.68;3.55;;;31.50;90.70;;;;;;4994318;28;20349;-44
2022/07/04 06:56:46;;;;;;;7.03;3.50;;;31.40;91.30;;;;;;5003299;28;20064;-46
2022/07/04 06:59:11;;;;;;;6.70;3.60;;;32.00;91.90;;;;;;4995935;28;20118;-45
2022/07/04 07:01:40;;;;;;;9.70;2.78;;;30.90;91.60;;;;;;4976635;28;20196;-48
2022/07/04 07:04:06;;;;;;;7.55;2.65;;;29.50;91.20;;;;;;5011145;28;20095;-45
2022/07/04 07:06:31;;;;;;;6.18;3.45;;;28.40;91.90;;;;;;4982543;28;20050;-45
2022/07/04 07:08:57;;;;;;;7.47;3.42;;;28.30;93.30;;;;;;4993696;28;20061;-44
2022/07/04 07:11:23;;;;;;;18.00;3.05;;;28.50;93.30;;;;;;4997412;28;20078;-45
2022/07/04 07:13:51;;;;;;;7.63;2.40;;;28.20;92.80;;;;;;4985908;28;20050;-45
2022/07/04 07:16:18;;;;;;;4.43;2.15;;;27.60;92.20;;;;;;5003256;28;20046;-44
2022/07/04 07:18:44;;;;;;;4.90;2.10;;;27.60;92.90;;;;;;4995911;28;20046;-46
2022/07/04 07:21:10;;;;;;;7.32;2.50;;;28.60;92.80;;;;;;5005286;28;20405;-44
2022/07/04 07:23:42;;;;;;;6.70;3.00;;;29.70;92.60;;;;;;4979785;28;20073;-44
2022/07/04 07:26:09;;;;;;;6.95;2.38;;;30.20;92.20;;;;;;4986517;28;20049;-46
2022/07/04 07:28:35;;;;;;;5.28;2.38;;;29.40;91.20;;;;;;4994762;28;20050;-44
2022/07/04 07:31:02;;;;;;;6.90;2.22;;;28.90;91.40;;;;;;5003114;28;21193;-46
2022/07/04 07:33:27;;;;;;;4.82;2.28;;;28.10;92.00;;;;;;4972656;28;20046;-44
2022/07/04 07:35:53;;;;;;;6.00;2.15;;;27.20;92.60;;;;;;4985069;28;20127;-47
2022/07/04 07:38:19;;;;;;;4.82;2.05;;;26.50;92.50;;;;;;4999894;28;20054;-47
2022/07/04 07:40:45;;;;;;;4.75;2.25;;;25.90;93.30;;;;;;4998805;28;20129;-45
2022/07/04 07:43:10;;;;;;;5.55;2.10;;;25.40;94.30;;;;;;4997029;28;20127;-46
2022/07/04 07:45:37;;;;;;;4.68;2.15;;;25.10;94.50;;;;;;4982418;28;20133;-45
2022/07/04 07:48:03;;;;;;;7.10;2.25;;;24.70;95.10;;;;;;4989794;28;20046;-44
2022/07/04 07:50:29;;;;;;;3.47;1.70;;;24.50;95.10;;;;;;4997269;28;20639;-44
2022/07/04 07:52:55;;;;;;;7.97;2.10;;;24.70;95.50;;;;;;4994725;28;20137;-45
2022/07/04 07:55:20;;;;;;;3.40;2.00;;;24.90;95.40;;;;;;5001716;28;20050;-44
2022/07/04 07:57:46;;;;;;;6.57;1.85;;;25.10;95.20;;;;;;5004233;28;20451;-44
2022/07/04 08:00:12;;;;;;;5.38;2.15;;;25.30;95.00;;;;;;4982171;28;20050;-46
2022/07/04 08:05:22;;;;;;;5.82;1.75;;;25.30;94.00;;;;;;4987195;28;20587;-45
2022/07/04 08:07:48;;;;;;;5.18;2.15;;;25.00;93.80;;;;;;4977763;28;20066;-46
2022/07/04 08:10:14;;;;;;;4.07;2.20;;;25.10;94.20;;;;;;5000892;28;20054;-46
2022/07/04 08:12:41;;;;;;;4.28;2.00;;;25.00;94.30;;;;;;5004003;28;20460;-44
2022/07/04 08:15:07;;;;;;;4.97;1.80;;;24.70;95.00;;;;;;4999578;28;20145;-44
2022/07/04 08:17:33;;;;;;;4.53;1.80;;;25.10;95.10;;;;;;4999585;28;20079;-47
2022/07/04 08:20:03;;;;;;;4.38;1.80;;;25.30;94.90;;;;;;4998206;28;20042;-45
2022/07/04 08:22:31;;;;;;;2.53;1.45;;;25.40;95.10;;;;;;4997139;28;20045;-47
2022/07/04 08:24:57;;;;;;;3.72;1.55;;;25.20;92.90;;;;;;5000944;28;20053;-48
2022/07/04 08:27:23;;;;;;;4.63;1.63;;;25.10;93.30;;;;;;4989808;28;20432;-47
2022/07/04 08:29:49;;;;;;;2.72;1.40;;;24.90;93.30;;;;;;5001113;28;20042;-46
2022/07/04 08:32:15;;;;;;;4.30;1.55;;;24.70;94.20;;;;;;5002784;28;20515;-45
2022/07/04 08:34:42;;;;;;;3.30;1.58;;;24.80;94.10;;;;;;4981729;28;20197;-45
2022/07/04 08:37:08;;;;;;;4.35;1.67;;;24.90;93.20;;;;;;5000591;28;20046;-46
2022/07/04 08:39:34;;;;;;;4.05;1.60;;;24.50;93.10;;;;;;5000907;28;20390;-44
2022/07/04 08:42:05;;;;;;;5.50;1.90;;;24.60;94.40;;;;;;4991774;28;20049;-44
2022/07/04 08:44:32;;;;;;;3.08;1.20;;;24.70;94.10;;;;;;4980522;28;20400;-47
2022/07/04 08:46:58;;;;;;;3.05;1.83;;;24.40;93.30;;;;;;4980077;28;20493;-46
2022/07/04 08:49:31;;;;;;;3.88;1.73;;;24.60;94.50;;;;;;4976530;28;20060;-47
2022/07/04 08:52:03;;;;;;;3.83;1.73;;;24.60;93.80;;;;;;4976239;28;20129;-45
2022/07/04 09:00:08;;;;;;;4.70;1.38;;;24.80;94.20;;;;;;4942271;28;20117;-46
2022/07/04 09:02:37;;;;;;;5.47;1.60;;;25.00;94.70;;;;;;4925464;28;20091;-47
2022/07/04 09:05:05;;;;;;;4.82;2.00;;;25.00;94.00;;;;;;4949182;28;20182;-46
2022/07/04 09:07:32;;;;;;;5.05;1.50;;;24.70;92.80;;;;;;4946195;28;20086;-49
2022/07/04 09:09:58;;;;;;;3.25;1.40;;;24.80;93.70;;;;;;4932672;28;20448;-46
2022/07/04 09:12:24;;;;;;;1.95;1.40;;;25.10;94.00;;;;;;4937933;29;20260;-45
2022/07/04 09:14:52;;;;;;;5.78;1.58;;;25.10;93.50;;;;;;4950251;28;20682;-44
2022/07/04 09:17:17;;;;;;;4.30;1.70;;;25.00;93.40;;;;;;4936914;29;20058;-49
2022/07/04 09:19:43;;;;;;;8.13;1.85;;;24.80;93.30;;;;;;4937558;28;20212;-45
2022/07/04 09:22:11;;;;;;;3.85;1.50;;;24.50;92.90;;;;;;4939345;28;21715;-46
2022/07/04 09:24:53;;;;;;;2.35;1.58;;;24.10;93.00;;;;;;4941595;28;20090;-47
2022/07/04 09:27:41;;;;;;;2.90;1.95;;;23.90;93.90;;;;;;4936455;29;20066;-44
2022/07/04 09:30:08;;;;;;;2.85;1.30;;;23.60;93.50;;;;;;4935624;28;20055;-47
2022/07/04 09:32:41;;;;;;;3.20;1.67;;;23.40;94.10;;;;;;4924640;28;20145;-46
2022/07/04 09:35:18;;;;;;;3.78;1.73;;;23.10;95.20;;;;;;4985670;28;20057;-45
2022/07/04 09:37:49;;;;;;;3.90;1.77;;;23.40;95.80;;;;;;4974100;28;20054;-45
2022/07/04 09:40:29;;;;;;;4.80;2.05;;;23.60;95.20;;;;;;4968743;28;20134;-44
2022/07/04 09:42:59;;;;;;;3.15;1.70;;;23.90;95.20;;;;;;4989224;28;20560;-45
2022/07/04 09:45:27;;;;;;;5.05;2.10;;;24.10;95.30;;;;;;4978051;28;20468;-45
2022/07/04 09:47:57;;;;;;;3.47;1.70;;;24.40;95.40;;;;;;4993592;28;20115;-45
2022/07/04 09:50:29;;;;;;;3.28;1.60;;;24.60;95.00;;;;;;4990308;28;20128;-45
2022/07/04 09:53:00;;;;;;;3.50;1.65;;;24.50;93.90;;;;;;4995236;28;20165;-46
2022/07/04 09:55:31;;;;;;;3.85;1.60;;;24.10;92.60;;;;;;4999779;28;20053;-46
2022/07/04 09:58:00;;;;;;;2.93;1.50;;;23.60;92.50;;;;;;4985551;28;20054;-43
2022/07/04 10:00:28;;;;;;;2.63;1.70;;;23.40;93.30;;;;;;5001151;28;20065;-44
2022/07/04 10:02:55;;;;;;;4.05;1.52;;;23.30;93.60;;;;;;5000010;28;20689;-44
2022/07/04 10:05:24;;;;;;;3.00;1.60;;;23.40;94.10;;;;;;5002136;28;20065;-44
2022/07/04 10:07:50;;;;;;;5.32;2.17;;;23.70;94.60;;;;;;5000393;28;20472;-46
2022/07/04 10:10:29;;;;;;;3.15;1.70;;;23.90;94.30;;;;;;4995264;28;20053;-44
2022/07/04 10:13:01;;;;;;;3.05;1.60;;;24.00;94.20;;;;;;4997147;28;20053;-44
2022/07/04 10:15:27;;;;;;;2.78;1.50;;;24.10;94.40;;;;;;4976680;28;20045;-46
2022/07/04 10:17:53;;;;;;;3.65;1.73;;;24.20;93.60;;;;;;4996193;28;20057;-45
2022/07/04 10:20:20;;;;;;;3.15;1.40;;;24.40;94.00;;;;;;4982361;28;20042;-44
2022/07/04 10:22:47;;;;;;;4.15;1.50;;;24.50;93.90;;;;;;4997281;28;20054;-45
2022/07/04 10:25:13;;;;;;;3.97;1.95;;;24.40;93.50;;;;;;4973537;28;20401;-46
2022/07/04 10:27:39;;;;;;;4.30;1.70;;;24.30;93.90;;;;;;4999338;28;20050;-46
2022/07/04 10:30:07;;;;;;;6.18;2.03;;;24.40;93.30;;;;;;5003435;28;20038;-45
2022/07/04 10:32:34;;;;;;;3.92;1.55;;;24.50;93.40;;;;;;4998323;28;20504;-47
2022/07/04 10:35:00;;;;;;;4.63;1.88;;;24.70;94.40;;;;;;4995835;28;20447;-49
2022/07/04 10:38:27;;;;;;;3.58;1.63;;;24.90;93.70;;;;;;4979502;28;20042;-45
2022/07/04 10:40:53;;;;;;;4.80;1.60;;;25.00;93.00;;;;;;4928953;29;20052;-47
2022/07/04 10:43:37;;;;;;;2.75;1.60;;;24.50;92.40;;;;;;4918795;29;20059;-45
2022/07/04 10:46:15;;;;;;;6.60;2.22;;;24.10;93.60;;;;;;4918406;29;20154;-45
2022/07/04 10:48:55;;;;;;;2.83;1.45;;;23.80;93.30;;;;;;4905360;29;20111;-46
2022/07/04 10:51:34;;;;;;;6.18;1.90;;;23.70;93.60;;;;;;4922312;29;20515;-44
2022/07/04 10:54:08;;;;;;;2.97;1.45;;;23.90;94.40;;;;;;4921433;29;20078;-44
2022/07/04 10:56:35;;;;;;;4.32;1.42;;;24.30;94.30;;;;;;4919529;29;20061;-43
2022/07/04 10:59:08;;;;;;;4.97;1.60;;;24.60;94.00;;;;;;4913874;29;20059;-45
2022/07/04 11:01:34;;;;;;;2.78;1.30;;;24.30;92.50;;;;;;4923960;29;20047;-45
2022/07/04 11:04:00;;;;;;;3.67;1.30;;;24.20;91.70;;;;;;4920682;29;20048;-44
2022/07/04 11:06:42;;;;;;;3.47;1.17;;;24.20;92.50;;;;;;4915698;29;20044;-44
2022/07/04 11:09:18;;;;;;;;;;;24.40;92.70;;;;;;4925528;29;20051;-46
2022/07/04 11:11:49;;;;;;;3.70;1.40;;;24.40;93.30;;;;;;4952297;28;19930;-45
2022/07/04 11:14:34;;;;;;;4.28;1.30;;;24.20;92.70;;;;;;4991320;28;20042;-44
2022/07/04 11:17:04;;;;;;;4.88;1.33;;;24.20;91.10;;;;;;4971749;28;20465;-43
2022/07/04 11:19:31;;;;;;;3.22;1.25;;;24.20;91.10;;;;;;4980770;28;20050;-43
2022/07/04 11:21:58;;;;;;;2.30;1.20;;;24.40;92.50;;;;;;4981442;28;20054;-46
2022/07/04 11:24:25;;;;;;;5.28;1.40;;;24.70;92.20;;;;;;4988623;28;20055;-44
2022/07/04 11:26:51;;;;;;;4.85;1.50;;;25.00;92.40;;;;;;4968871;28;20466;-44
2022/07/04 11:29:17;;;;;;;4.03;1.58;;;25.10;92.00;;;;;;4985453;28;20063;-46
2022/07/04 11:31:48;;;;;;;1.95;1.20;;;25.00;91.50;;;;;;4968318;28;20493;-44
2022/07/04 11:34:14;;;;;;;2.10;1.38;;;24.80;90.70;;;;;;4979703;28;20290;-44
2022/07/04 11:36:47;;;;;;;3.00;1.30;;;24.60;91.10;;;;;;4976779;28;20505;-44
2022/07/04 11:39:21;;;;;;;4.10;1.50;;;24.40;91.90;;;;;;4970841;28;20050;-44
2022/07/04 11:47:23;;;;;;;3.78;1.80;;;23.80;91.50;;;;;;5007401;28;20123;-44
2022/07/04 11:49:52;;;;;;;3.47;1.23;;;23.60;92.80;;;;;;5002037;28;20042;-45
2022/07/04 11:52:21;;;;;;;4.13;1.75;;;23.70;92.80;;;;;;5008056;28;20137;-47
2022/07/04 11:54:48;;;;;;;4.65;1.88;;;23.60;91.90;;;;;;4999343;28;20493;-45
2022/07/04 11:57:30;;;;;;;3.35;1.65;;;23.40;92.10;;;;;;5003017;28;20129;-45
2022/07/04 12:00:02;;;;;;;3.33;1.50;;;23.30;92.50;;;;;;5005224;28;20060;-45
2022/07/04 12:02:30;;;;;;;4.00;1.70;;;23.50;94.30;;;;;;5001010;28;20053;-47
2022/07/04 12:04:57;;;;;;;4.90;1.67;;;23.70;92.60;;;;;;4994287;28;20053;-48
2022/07/04 12:07:27;;;;;;;2.85;1.30;;;23.70;92.00;;;;;;4997117;28;20050;-46
2022/07/04 12:09:55;;;;;;;5.35;1.33;;;23.50;91.80;;;;;;4990966;28;20092;-44
2022/07/04 12:12:21;;;;;;;2.97;1.50;;;23.50;92.90;;;;;;4986734;28;20306;-44
2022/07/04 12:15:05;;;;;;;5.53;2.05;;;23.70;93.20;;;;;;5004440;28;20054;-47
2022/07/04 12:17:36;;;;;;;4.03;1.50;;;23.70;92.60;;;;;;5000555;28;20386;-44
2022/07/04 12:20:07;;;;;;;4.38;1.60;;;23.60;91.40;;;;;;4991400;28;20054;-44
2022/07/04 12:22:36;;;;;;;2.63;1.08;;;23.60;92.20;;;;;;4977600;28;20050;-44
2022/07/04 12:25:04;;;;;;;3.10;1.30;;;23.50;93.20;;;;;;5004000;28;20159;-44
2022/07/04 12:27:30;;;;;;;4.55;1.10;;;23.40;91.90;;;;;;5004722;28;20485;-44
2022/07/04 12:29:58;;;;;;;4.03;1.17;;;23.10;91.80;;;;;;5003853;28;20420;-44
2022/07/04 12:32:23;;;;;;;2.45;1.40;;;23.20;90.90;;;;;;4988142;28;20497;-43
2022/07/04 12:34:49;;;;;;;2.40;1.17;;;23.20;90.60;;;;;;4996527;28;20050;-44
2022/07/04 12:37:16;;;;;;;2.97;1.20;;;23.10;91.90;;;;;;4995845;28;20049;-45
2022/07/04 12:39:44;;;;;;;4.53;1.27;;;23.00;91.50;;;;;;4997708;28;20587;-44
2022/07/04 12:42:19;;;;;;;2.38;1.10;;;23.10;91.40;;;;;;4993946;28;20042;-44
2022/07/04 12:44:49;;;;;;;2.72;1.70;;;23.00;90.90;;;;;;4997002;28;20588;-44
2022/07/04 12:47:15;;;;;;;2.95;1.48;;;23.00;91.10;;;;;;5000473;28;20523;-44
2022/07/04 12:49:46;;;;;;;5.88;1.10;;;22.90;91.40;;;;;;4999139;28;20059;-45
2022/07/04 12:52:17;;;;;;;3.15;1.10;;;22.80;92.00;;;;;;4996667;28;20046;-46
2022/07/04 12:54:46;;;;;;;3.75;1.20;;;22.80;91.10;;;;;;5001309;28;20472;-44
2022/07/04 12:57:14;;;;;;;2.97;1.38;;;22.80;92.20;;;;;;5003564;28;20477;-46
2022/07/04 12:59:41;;;;;;;2.72;1.10;;;23.10;92.80;;;;;;4984037;28;20057;-45
2022/07/04 13:02:08;;;;;;;3.75;1.30;;;23.20;92.10;;;;;;4982011;28;20046;-44
2022/07/04 13:04:35;;;;;;;3.85;1.23;;;23.30;91.80;;;;;;4994111;28;20112;-44
2022/07/04 13:07:21;;;;;;;2.85;1.05;;;23.20;91.40;;;;;;4995708;28;20068;-43